Time;durP1;ratioP1;P1;durP2;ratioP2;P2;SDS_P1;SDS_P2;PMS_P1;PMS_P2;Temp;Humidity;BMP_temperature;BMP_pressure;BME280_temperature;BME280_humidity;BME280_pressure;Samples;Min_cycle;Max_cycle;Signal;HPM_P1;HPM_P2
2021/03/13 00:02:02;;;;;;;5.50;0.98;;;;;;;6.44;48.37;95667.47;5049953;28;20562;-67
2021/03/13 00:04:29;;;;;;;3.10;0.90;;;;;;;6.43;48.22;95670.47;5050985;28;20041;-66
2021/03/13 00:06:55;;;;;;;2.35;0.82;;;;;;;6.38;48.08;95673.31;5050346;28;20416;-66
2021/03/13 00:09:21;;;;;;;2.13;0.75;;;;;;;6.41;48.05;95673.47;5050607;28;20045;-66
2021/03/13 00:11:47;;;;;;;4.43;0.80;;;;;;;6.45;48.22;95674.47;5049886;28;20132;-66
2021/03/13 00:14:13;;;;;;;2.35;0.60;;;;;;;6.44;48.70;95672.88;5050886;28;20045;-66
2021/03/13 00:16:39;;;;;;;4.60;0.68;;;;;;;6.45;47.92;95674.47;5049432;28;20404;-66
2021/03/13 00:19:05;;;;;;;2.70;0.47;;;;;;;6.39;48.76;95673.00;5050259;28;20132;-67
2021/03/13 00:21:32;;;;;;;4.03;0.63;;;;;;;6.37;48.91;95671.69;5054341;28;20051;-67
2021/03/13 00:23:58;;;;;;;2.90;0.70;;;;;;;6.35;48.82;95661.19;5070247;28;20078;-67
2021/03/13 00:26:24;;;;;;;1.73;0.60;;;;;;;6.37;48.43;95671.69;5069836;28;20044;-66
2021/03/13 00:28:50;;;;;;;3.00;0.70;;;;;;;6.31;48.62;95668.31;5070027;28;20537;-67
2021/03/13 00:31:16;;;;;;;3.50;0.88;;;;;;;6.36;48.17;95676.28;5070083;28;20701;-67
2021/03/13 00:33:43;;;;;;;2.50;0.90;;;;;;;6.35;48.17;95677.41;5069808;28;20044;-67
2021/03/13 00:36:09;;;;;;;1.58;0.65;;;;;;;6.33;48.09;95671.53;5069976;28;20041;-67
2021/03/13 00:38:36;;;;;;;2.08;0.70;;;;;;;6.31;48.32;95676.41;5069605;28;20037;-66
2021/03/13 00:41:02;;;;;;;2.40;0.50;;;;;;;6.35;48.11;95674.72;5070343;28;20053;-67
2021/03/13 00:43:29;;;;;;;3.65;0.70;;;;;;;6.37;47.94;95675.22;5068746;28;20040;-67
2021/03/13 00:45:55;;;;;;;3.97;0.60;;;;;;;6.38;47.90;95673.31;5070303;28;20074;-67
2021/03/13 00:48:21;;;;;;;2.60;0.57;;;;;;;6.39;48.32;95673.00;5053998;28;20058;-67
2021/03/13 00:50:47;;;;;;;3.40;0.70;;;;;;;6.46;47.19;95669.84;5049887;28;20123;-67
2021/03/13 00:53:14;;;;;;;3.38;0.80;;;;;;;6.53;47.08;95668.31;5049261;28;20397;-67
2021/03/13 00:55:41;;;;;;;3.90;0.70;;;;;;;6.63;46.68;95674.56;5049543;28;20542;-67
2021/03/13 00:58:07;;;;;;;3.00;0.90;;;;;;;6.61;47.23;95674.88;5049433;28;20095;-67
2021/03/13 01:00:34;;;;;;;3.53;0.70;;;;;;;6.60;47.42;95669.78;5048697;28;20535;-67
2021/03/13 01:03:00;;;;;;;1.58;0.70;;;;;;;6.63;47.20;95658.34;5050531;28;20459;-67
2021/03/13 01:05:26;;;;;;;3.33;0.60;;;;;;;6.64;47.36;95654.53;5050228;28;20496;-67
2021/03/13 01:07:52;;;;;;;1.88;0.70;;;;;;;6.66;47.20;95663.94;5050456;28;20118;-67
2021/03/13 01:10:21;;;;;;;3.67;0.50;;;;;;;6.66;47.65;95653.09;5049005;28;20258;-67
2021/03/13 01:12:48;;;;;;;2.10;0.50;;;;;;;6.62;48.05;95645.91;5050015;28;20045;-66
2021/03/13 01:15:17;;;;;;;2.85;0.63;;;;;;;6.59;48.25;95643.84;5049306;28;20049;-67
2021/03/13 01:17:43;;;;;;;2.47;0.65;;;;;;;6.58;48.26;95647.63;5049231;28;20447;-67
2021/03/13 01:20:12;;;;;;;2.35;0.63;;;;;;;6.56;48.42;95649.88;5049281;28;20520;-67
2021/03/13 01:22:39;;;;;;;2.65;0.52;;;;;;;6.60;48.61;95637.31;5049295;28;20057;-67
2021/03/13 01:25:07;;;;;;;4.47;0.88;;;;;;;6.54;48.49;95634.75;5049482;28;20052;-67
2021/03/13 01:27:33;;;;;;;1.13;0.60;;;;;;;6.60;48.52;95637.31;5048973;28;20484;-67
2021/03/13 01:30:00;;;;;;;2.03;0.60;;;;;;;6.64;48.51;95644.50;5050232;28;20646;-68
2021/03/13 01:32:26;;;;;;;1.65;0.50;;;;;;;6.64;48.68;95643.72;5048533;28;20534;-67
2021/03/13 01:34:52;;;;;;;2.08;0.65;;;;;;;6.66;48.76;95647.69;5049691;28;20528;-67
2021/03/13 01:37:21;;;;;;;3.63;0.70;;;;;;;6.71;48.31;95649.47;5049100;28;20053;-67
2021/03/13 01:39:47;;;;;;;1.20;0.52;;;;;;;6.74;48.42;95655.06;5049621;28;20079;-67
2021/03/13 01:42:13;;;;;;;4.10;0.77;;;;;;;6.70;48.47;95650.59;5049054;28;20041;-67
2021/03/13 01:44:39;;;;;;;2.90;0.55;;;;;;;6.74;48.20;95659.69;5049329;28;20514;-68
2021/03/13 01:47:06;;;;;;;3.08;0.70;;;;;;;6.69;48.60;95652.50;5049432;28;20041;-67
2021/03/13 01:49:34;;;;;;;5.10;0.77;;;;;;;6.70;47.78;95654.09;5048974;28;20067;-68
2021/03/13 01:52:00;;;;;;;3.75;0.70;;;;;;;6.69;48.44;95646.28;5050082;28;20496;-67
2021/03/13 01:54:26;;;;;;;3.90;0.80;;;;;;;6.58;48.87;95651.16;5048460;28;20053;-67
2021/03/13 01:56:52;;;;;;;3.00;0.60;;;;;;;6.57;48.99;95643.34;5053562;28;20049;-67
2021/03/13 01:59:19;;;;;;;4.13;0.80;;;;;;;6.52;48.91;95653.22;5052124;28;20412;-67
2021/03/13 02:01:46;;;;;;;4.15;1.00;;;;;;;6.54;48.71;95637.47;5053137;28;20045;-67
2021/03/13 02:04:14;;;;;;;2.55;0.80;;;;;;;6.54;48.55;95650.97;5052793;28;20053;-67
2021/03/13 02:06:41;;;;;;;1.90;0.63;;;;;;;6.53;48.63;95649.38;5052826;28;20045;-67
2021/03/13 02:09:17;;;;;;;2.60;0.50;;;;;;;6.59;48.72;95643.84;5052683;28;20500;-67
2021/03/13 02:11:50;;;;;;;1.50;0.50;;;;;;;6.64;48.74;95643.72;5052421;28;20048;-67
2021/03/13 02:14:24;;;;;;;2.60;0.70;;;;;;;6.60;48.38;95640.81;5053272;28;20049;-67
2021/03/13 02:16:59;;;;;;;4.57;0.73;;;;;;;6.69;48.89;95643.59;5052205;28;20044;-67
2021/03/13 02:19:53;;;;;;;4.18;0.60;;;;;;;6.72;48.84;95635.63;5052475;28;20049;-67
2021/03/13 02:22:21;;;;;;;3.60;0.85;;;;;;;6.68;49.78;95636.56;5052481;28;20045;-67
2021/03/13 02:25:01;;;;;;;2.08;0.52;;;;;;;6.69;49.68;95635.47;5052386;28;20447;-67
2021/03/13 02:27:28;;;;;;;1.77;0.70;;;;;;;6.71;49.34;95633.25;5052912;28;20037;-67
2021/03/13 02:30:00;;;;;;;2.47;0.70;;;;;;;6.76;49.45;95639.31;5051884;28;20079;-67
2021/03/13 02:32:34;;;;;;;1.75;0.50;;;;;;;6.81;49.23;95624.84;5052601;28;20095;-67
2021/03/13 02:35:05;;;;;;;2.65;0.60;;;;;;;6.82;48.77;95620.25;5051954;28;20052;-67
2021/03/13 02:37:35;;;;;;;3.80;0.65;;;;;;;6.90;48.60;95620.28;5052429;28;20037;-67
2021/03/13 02:40:04;;;;;;;1.77;0.57;;;;;;;6.84;48.52;95618.84;5052204;28;20052;-67
2021/03/13 02:42:32;;;;;;;3.33;0.70;;;;;;;6.80;49.04;95607.03;5052733;28;20045;-67
2021/03/13 02:45:00;;;;;;;1.15;0.50;;;;;;;6.85;48.98;95612.31;5053071;28;20676;-67
2021/03/13 02:47:27;;;;;;;2.22;0.68;;;;;;;6.80;49.24;95615.16;5050993;28;20045;-67
2021/03/13 02:49:55;;;;;;;3.55;0.70;;;;;;;6.73;49.50;95606.66;5052884;28;20439;-67
2021/03/13 02:52:22;;;;;;;2.45;0.85;;;;;;;6.65;50.46;95607.44;5049973;28;20129;-67
2021/03/13 02:54:51;;;;;;;3.05;0.75;;;;;;;6.64;50.53;95608.56;5052488;28;20041;-67
2021/03/13 02:57:20;;;;;;;3.15;0.75;;;;;;;6.65;50.77;95610.13;5051259;28;20045;-67
2021/03/13 02:59:48;;;;;;;1.65;0.80;;;;;;;6.71;50.77;95603.47;5052085;28;20092;-68
2021/03/13 03:02:16;;;;;;;3.20;0.60;;;;;;;6.62;51.41;95597.22;5051531;28;20045;-67
2021/03/13 03:04:42;;;;;;;1.33;0.82;;;;;;;6.51;52.19;95602.91;5051685;28;20044;-67
2021/03/13 03:07:10;;;;;;;3.35;0.82;;;;;;;6.53;52.57;95610.72;5050621;28;20425;-67
2021/03/13 03:09:37;;;;;;;1.20;0.60;;;;;;;6.48;53.03;95618.97;5051485;28;20041;-67
2021/03/13 03:12:06;;;;;;;3.72;0.68;;;;;;;6.43;53.14;95614.47;5051794;28;20408;-67
2021/03/13 03:14:32;;;;;;;2.85;0.70;;;;;;;6.45;53.11;95614.16;5051322;28;20056;-66
2021/03/13 03:17:02;;;;;;;2.22;0.73;;;;;;;6.38;53.33;95609.19;5051887;28;20106;-66
2021/03/13 03:19:32;;;;;;;3.50;0.88;;;;;;;6.35;53.26;95609.00;5051193;28;20051;-67
2021/03/13 03:21:59;;;;;;;2.42;0.70;;;;;;;6.36;53.53;95607.91;5051223;28;20056;-66
2021/03/13 03:24:25;;;;;;;2.15;0.50;;;;;;;6.38;53.48;95598.38;5051257;28;20052;-66
2021/03/13 03:26:51;;;;;;;1.75;0.60;;;;;;;6.41;53.27;95603.16;5051309;28;20049;-67
2021/03/13 03:29:20;;;;;;;4.57;0.80;;;;;;;6.43;53.27;95609.06;5051220;28;20045;-67
2021/03/13 03:31:46;;;;;;;1.65;0.63;;;;;;;6.44;53.61;95605.25;5050668;28;20045;-67
2021/03/13 03:34:12;;;;;;;1.52;0.60;;;;;;;6.48;53.44;95605.44;5051585;28;20056;-66
2021/03/13 03:36:39;;;;;;;1.33;0.45;;;;;;;6.45;53.95;95612.25;5051953;28;20041;-67
2021/03/13 03:39:06;;;;;;;3.30;0.88;;;;;;;6.44;54.03;95616.06;5050937;28;20044;-67
2021/03/13 03:41:33;;;;;;;3.83;0.70;;;;;;;6.43;54.17;95606.38;5050845;28;20098;-67
2021/03/13 03:44:03;;;;;;;4.68;0.77;;;;;;;6.42;54.57;95603.94;5051530;28;20041;-67
2021/03/13 03:46:33;;;;;;;1.30;0.57;;;;;;;6.40;54.52;95609.69;5042905;28;20045;-67
2021/03/13 03:49:03;;;;;;;2.50;0.60;;;;;;;6.45;54.39;95606.06;5049615;28;20075;-67
2021/03/13 03:51:30;;;;;;;3.05;0.60;;;;;;;6.40;54.79;95617.78;5040123;28;20597;-67
2021/03/13 03:53:59;;;;;;;2.00;0.70;;;;;;;6.29;55.15;95616.47;5030151;28;20053;-67
2021/03/13 03:56:27;;;;;;;1.95;0.60;;;;;;;6.28;55.44;95609.47;5031212;28;20056;-67
2021/03/13 03:58:54;;;;;;;4.40;0.70;;;;;;;6.33;55.24;95606.63;5030352;28;20052;-66
2021/03/13 04:01:22;;;;;;;2.50;0.80;;;;;;;6.35;55.52;95609.81;5030951;28;20049;-67
2021/03/13 04:03:51;;;;;;;3.38;0.80;;;;;;;6.40;55.17;95606.97;5030629;28;20053;-67
2021/03/13 04:06:18;;;;;;;1.58;0.68;;;;;;;6.43;55.47;95617.19;5030450;28;20120;-67
2021/03/13 04:08:46;;;;;;;4.13;0.65;;;;;;;6.46;55.68;95611.13;5030890;28;20122;-66
2021/03/13 04:11:16;;;;;;;3.17;0.65;;;;;;;6.33;56.02;95598.50;5030202;28;20068;-67
2021/03/13 04:13:43;;;;;;;0.73;0.68;;;;;;;6.26;56.25;95595.44;5031438;28;20060;-67
2021/03/13 04:16:11;;;;;;;4.28;0.80;;;;;;;6.18;56.67;95605.09;5029644;28;20045;-67
2021/03/13 04:18:37;;;;;;;1.08;0.70;;;;;;;6.15;56.69;95597.59;5031202;28;20045;-67
2021/03/13 04:21:04;;;;;;;1.23;0.60;;;;;;;6.14;56.80;95589.78;5029281;28;20048;-67
2021/03/13 04:23:32;;;;;;;4.05;0.70;;;;;;;6.15;56.56;95600.28;5030004;28;20121;-67
2021/03/13 04:25:58;;;;;;;3.53;0.60;;;;;;;6.16;57.01;95590.28;5029790;28;20046;-67
2021/03/13 04:28:25;;;;;;;2.58;0.70;;;;;;;6.07;56.92;95576.72;5029623;28;20049;-66
2021/03/13 04:30:52;;;;;;;2.10;0.70;;;;;;;6.02;57.23;95574.16;5030049;28;20739;-67
2021/03/13 04:33:19;;;;;;;2.40;0.70;;;;;;;5.98;57.68;95573.94;5029766;28;20041;-67
2021/03/13 04:35:47;;;;;;;4.15;0.55;;;;;;;6.00;57.47;95566.34;5030432;28;20044;-67
2021/03/13 04:38:16;;;;;;;1.33;0.68;;;;;;;5.96;57.50;95576.16;5029300;28;20132;-67
2021/03/13 04:40:43;;;;;;;1.35;0.50;;;;;;;5.92;57.78;95575.19;5030777;28;20611;-66
2021/03/13 04:43:10;;;;;;;0.50;0.40;;;;;;;5.90;57.97;95569.28;5029347;28;20104;-67
2021/03/13 04:45:37;;;;;;;1.80;0.65;;;;;;;5.82;58.21;95559.19;5030995;28;20045;-67
2021/03/13 04:48:04;;;;;;;1.10;0.90;;;;;;;5.83;58.06;95560.78;5028781;28;20072;-67
2021/03/13 04:50:30;;;;;;;2.58;0.52;;;;;;;5.83;58.06;95563.47;5030608;28;20041;-67
2021/03/13 04:52:56;;;;;;;2.33;0.55;;;;;;;5.86;58.30;95554.78;5029153;28;20496;-66
2021/03/13 04:55:22;;;;;;;2.75;0.63;;;;;;;5.91;58.45;95549.28;5030251;28;20069;-66
2021/03/13 04:57:49;;;;;;;2.40;0.55;;;;;;;5.92;58.30;95558.97;5031001;28;20045;-66
2021/03/13 05:00:16;;;;;;;3.50;0.50;;;;;;;5.91;58.16;95546.56;5029154;28;20076;-67
2021/03/13 05:02:43;;;;;;;1.40;0.47;;;;;;;5.88;58.46;95547.16;5030533;28;20072;-66
2021/03/13 05:05:10;;;;;;;1.95;0.50;;;;;;;5.86;58.76;95549.38;5029003;28;20049;-66
2021/03/13 05:07:36;;;;;;;2.47;0.40;;;;;;;5.88;58.48;95539.03;5030678;28;20103;-67
2021/03/13 05:10:04;;;;;;;3.15;0.52;;;;;;;5.95;58.20;95547.56;5029009;28;20054;-67
2021/03/13 05:12:30;;;;;;;1.15;0.52;;;;;;;5.91;58.12;95546.56;5030432;28;20096;-67
2021/03/13 05:14:56;;;;;;;1.83;0.60;;;;;;;5.90;57.86;95528.75;5029763;28;20045;-68
2021/03/13 05:17:22;;;;;;;1.70;0.60;;;;;;;6.00;57.53;95543.91;5029717;28;20187;-67
2021/03/13 05:19:49;;;;;;;1.58;0.70;;;;;;;6.04;57.63;95544.09;5030051;28;20133;-66
2021/03/13 05:22:15;;;;;;;1.73;0.50;;;;;;;6.08;57.59;95534.28;5028469;28;20489;-67
2021/03/13 05:24:41;;;;;;;3.55;0.95;;;;;;;6.14;57.12;95544.63;5030392;28;20048;-66
2021/03/13 05:27:07;;;;;;;1.92;0.40;;;;;;;6.22;56.89;95535.00;5028570;28;20049;-67
2021/03/13 05:29:33;;;;;;;3.90;0.52;;;;;;;6.28;56.80;95533.75;5030578;28;20042;-66
2021/03/13 05:31:59;;;;;;;0.77;0.52;;;;;;;6.33;56.62;95539.03;5033186;28;20049;-66
2021/03/13 05:34:25;;;;;;;1.60;0.50;;;;;;;6.38;55.65;95525.38;5033916;28;20129;-67
2021/03/13 05:36:53;;;;;;;1.35;0.30;;;;;;;6.47;55.25;95520.81;5033161;28;20046;-67
2021/03/13 05:39:18;;;;;;;2.05;0.45;;;;;;;6.50;55.09;95519.38;5033852;28;20045;-66
2021/03/13 05:41:46;;;;;;;1.20;0.55;;;;;;;6.52;54.56;95528.78;5034183;28;20515;-67
2021/03/13 05:44:12;;;;;;;1.58;0.50;;;;;;;6.51;54.95;95507.44;5033294;28;20046;-67
2021/03/13 05:46:42;;;;;;;2.25;0.57;;;;;;;6.61;54.23;95519.91;5033560;28;20040;-67
2021/03/13 05:49:09;;;;;;;1.98;0.50;;;;;;;6.63;54.61;95512.25;5032667;28;20053;-67
2021/03/13 05:51:37;;;;;;;2.85;0.50;;;;;;;6.60;54.07;95515.59;5033160;28;20041;-66
2021/03/13 05:54:06;;;;;;;2.47;0.80;;;;;;;6.50;54.50;95509.34;5033485;28;20050;-67
2021/03/13 05:56:32;;;;;;;1.45;0.57;;;;;;;6.50;54.09;95509.34;5033988;28;20041;-66
2021/03/13 05:58:59;;;;;;;2.15;0.75;;;;;;;6.46;54.14;95527.31;5032672;28;20045;-66
2021/03/13 06:01:26;;;;;;;0.77;0.50;;;;;;;6.54;53.60;95521.16;5033178;28;20042;-66
2021/03/13 06:03:52;;;;;;;0.90;0.35;;;;;;;6.56;53.74;95525.44;5032580;28;20049;-66
2021/03/13 06:06:20;;;;;;;1.25;0.40;;;;;;;6.59;53.97;95514.81;5032638;28;20046;-66
2021/03/13 06:08:47;;;;;;;3.08;0.43;;;;;;;6.62;53.82;95526.88;5032867;28;20501;-66
2021/03/13 06:11:14;;;;;;;2.95;0.60;;;;;;;6.57;53.78;95518.91;5031963;28;20459;-66
2021/03/13 06:13:40;;;;;;;1.85;0.50;;;;;;;6.54;54.00;95521.16;5033373;28;20042;-66
2021/03/13 06:16:08;;;;;;;0.75;0.40;;;;;;;6.58;54.15;95520.50;5031884;28;20076;-67
2021/03/13 06:18:52;;;;;;;1.27;0.40;;;;;;;6.65;53.86;95527.06;5033542;28;20417;-66
2021/03/13 06:21:22;;;;;;;2.00;0.88;;;;;;;6.61;53.91;95525.31;5030212;28;20049;-67
2021/03/13 06:23:48;;;;;;;1.60;0.65;;;;;;;6.64;53.52;95516.56;5032480;28;20107;-66
2021/03/13 06:26:14;;;;;;;1.15;0.30;;;;;;;6.69;53.87;95524.56;5032154;28;20049;-66
2021/03/13 06:28:40;;;;;;;3.55;0.75;;;;;;;6.69;53.46;95521.84;5032256;28;20045;-66
2021/03/13 06:31:12;;;;;;;2.13;1.00;;;;;;;6.72;53.59;95510.38;5032287;28;20053;-68
2021/03/13 06:33:38;;;;;;;0.65;0.35;;;;;;;6.80;53.13;95509.63;5032277;28;20567;-66
2021/03/13 06:36:07;;;;;;;5.03;0.88;;;;;;;6.88;52.97;95510.75;5032790;28;20055;-67
2021/03/13 06:38:36;;;;;;;2.20;0.50;;;;;;;6.92;52.66;95498.97;5031960;28;20041;-67
2021/03/13 06:41:11;;;;;;;2.67;0.57;;;;;;;6.94;52.38;95502.19;5031953;28;20045;-67
2021/03/13 06:43:39;;;;;;;2.47;0.60;;;;;;;7.00;51.88;95500.13;5031695;28;20531;-67
2021/03/13 06:46:08;;;;;;;1.17;0.50;;;;;;;7.04;52.26;95512.69;5032094;28;20099;-67
2021/03/13 06:48:38;;;;;;;2.08;0.60;;;;;;;7.05;52.67;95503.47;5032493;28;20124;-67
2021/03/13 06:51:15;;;;;;;1.17;0.40;;;;;;;7.11;52.73;95501.41;5031721;28;20049;-67
2021/03/13 06:53:41;;;;;;;1.95;0.50;;;;;;;7.18;52.14;95501.72;5032870;28;20045;-66
2021/03/13 06:56:09;;;;;;;1.73;0.60;;;;;;;7.19;51.10;95507.94;5031045;28;20096;-78
2021/03/13 06:58:35;;;;;;;2.25;0.40;;;;;;;7.26;51.90;95509.06;5032881;28;20056;-78
2021/03/13 07:01:05;;;;;;;2.38;0.50;;;;;;;7.28;52.41;95516.88;5031244;28;20054;-72
2021/03/13 07:03:31;;;;;;;2.55;0.52;;;;;;;7.26;51.06;95513.69;5032791;28;20053;-73
2021/03/13 07:05:58;;;;;;;4.97;0.57;;;;;;;7.28;51.86;95512.25;5031658;28;20049;-73
2021/03/13 07:08:25;;;;;;;1.48;0.43;;;;;;;7.34;51.65;95504.75;5031910;28;20048;-73
2021/03/13 07:10:52;;;;;;;2.33;0.32;;;;;;;7.31;51.80;95516.25;5032101;28;20053;-72
2021/03/13 07:13:31;;;;;;;2.10;0.70;;;;;;;7.35;51.35;95521.81;5029937;28;20045;-73
2021/03/13 07:16:20;;;;;;;0.77;0.40;;;;;;;7.44;51.84;95511.78;5032141;28;20045;-73
2021/03/13 07:18:47;;;;;;;1.33;0.47;;;;;;;7.50;51.35;95503.19;5031530;28;20041;-72
2021/03/13 07:21:14;;;;;;;2.97;0.50;;;;;;;7.51;51.48;95507.47;5031709;28;20079;-73
2021/03/13 07:23:40;;;;;;;1.90;0.60;;;;;;;7.56;51.50;95515.44;5032427;28;20053;-72
2021/03/13 07:26:08;;;;;;;2.72;0.47;;;;;;;7.71;51.00;95516.88;5031609;28;20065;-73
2021/03/13 07:28:34;;;;;;;2.90;0.70;;;;;;;7.79;51.35;95520.72;5031688;28;20496;-72
2021/03/13 07:31:03;;;;;;;3.33;0.60;;;;;;;7.85;50.89;95520.22;5031308;28;20037;-80
2021/03/13 07:33:32;;;;;;;0.80;0.40;;;;;;;7.80;50.84;95516.88;5029892;28;20041;-72
2021/03/13 07:35:58;;;;;;;1.63;0.52;;;;;;;7.86;49.93;95515.59;5027982;28;20049;-73
2021/03/13 07:38:32;;;;;;;2.00;0.60;;;;;;;7.89;50.72;95508.75;5026041;28;20058;-72
2021/03/13 07:40:59;;;;;;;2.33;0.50;;;;;;;7.97;50.31;95510.63;5027451;28;20076;-73
2021/03/13 07:43:26;;;;;;;2.20;0.50;;;;;;;7.99;50.69;95514.63;5028267;28;20045;-72
2021/03/13 07:45:54;;;;;;;2.85;0.75;;;;;;;7.87;50.44;95511.75;5028133;28;20099;-72
2021/03/13 07:48:20;;;;;;;1.95;0.50;;;;;;;7.88;51.42;95516.06;5027908;28;20053;-73
2021/03/13 07:50:48;;;;;;;1.00;0.43;;;;;;;7.80;51.84;95522.31;5028120;28;20071;-72
2021/03/13 07:53:15;;;;;;;2.78;0.63;;;;;;;8.07;50.93;95505.66;5025439;28;20053;-72
2021/03/13 07:55:42;;;;;;;3.30;0.68;;;;;;;8.34;50.89;95501.75;5028353;28;20049;-72
2021/03/13 07:58:09;;;;;;;2.30;0.50;;;;;;;8.50;50.67;95499.34;5039998;28;20053;-73
2021/03/13 08:00:42;;;;;;;3.47;0.63;;;;;;;8.41;49.58;95490.47;5048535;28;20412;-73
2021/03/13 08:03:23;;;;;;;;;;;;;;;8.30;49.28;95491.88;5047156;28;20045;-73
2021/03/13 08:05:56;;;;;;;1.85;0.50;;;;;;;8.33;50.86;95485.81;5048339;28;19933;-73
2021/03/13 08:08:33;;;;;;;2.33;0.55;;;;;;;8.61;51.46;95486.22;5047179;28;20679;-72
2021/03/13 08:11:00;;;;;;;1.98;0.60;;;;;;;8.70;50.55;95478.03;5047015;28;20575;-72
2021/03/13 08:14:04;;;;;;;2.83;0.60;;;;;;;8.45;48.46;95483.25;5046631;28;20052;-73
2021/03/13 08:16:33;;;;;;;2.22;0.70;;;;;;;8.27;49.56;95481.69;5045756;28;20041;-72
2021/03/13 08:18:59;;;;;;;1.42;0.45;;;;;;;8.17;50.58;95476.63;5047942;28;20060;-72
2021/03/13 08:21:44;;;;;;;1.65;0.60;;;;;;;8.11;49.14;95487.66;5046762;28;20124;-72
2021/03/13 08:24:12;;;;;;;1.92;0.50;;;;;;;8.08;50.06;95474.72;5066851;28;20579;-72
2021/03/13 08:27:05;;;;;;;1.42;0.52;;;;;;;8.06;50.15;95479.69;5067311;28;20101;-73
2021/03/13 08:29:55;;;;;;;1.08;0.30;;;;;;;7.96;50.45;95466.47;5019388;28;20068;-73
2021/03/13 08:32:56;;;;;;;1.52;0.50;;;;;;;7.95;50.08;95475.72;5027642;28;20278;-74
2021/03/13 08:35:35;;;;;;;1.85;0.60;;;;;;;7.92;50.56;95481.78;5002772;28;20064;-75
2021/03/13 08:38:02;;;;;;;0.98;0.70;;;;;;;8.00;50.61;95475.56;5006959;28;20052;-74
2021/03/13 08:40:28;;;;;;;1.33;0.60;;;;;;;7.98;51.32;95475.06;5006739;28;20049;-74
2021/03/13 08:42:55;;;;;;;1.63;0.60;;;;;;;8.05;51.76;95474.59;5006681;28;20046;-74
2021/03/13 08:45:23;;;;;;;1.50;0.50;;;;;;;8.10;50.65;95460.84;5007768;28;20056;-74
2021/03/13 08:47:52;;;;;;;1.75;0.60;;;;;;;8.06;51.19;95466.13;5006952;28;20042;-74
2021/03/13 08:50:52;;;;;;;2.53;0.77;;;;;;;8.01;50.20;95462.78;5007384;28;20065;-74
2021/03/13 08:53:34;;;;;;;2.92;0.50;;;;;;;7.98;50.93;95458.00;5017682;28;20057;-74
2021/03/13 08:56:00;;;;;;;2.90;0.70;;;;;;;8.03;51.18;95450.50;5028925;28;20050;-74
2021/03/13 08:58:43;;;;;;;1.35;0.65;;;;;;;8.10;49.86;95445.38;5028920;28;20057;-74
2021/03/13 09:01:21;;;;;;;2.10;0.63;;;;;;;8.18;50.38;95427.47;5028032;28;20050;-74
2021/03/13 09:03:48;;;;;;;2.38;0.80;;;;;;;8.33;49.63;95420.72;5030518;28;20049;-74
2021/03/13 09:06:14;;;;;;;1.40;0.60;;;;;;;8.47;49.46;95405.06;5028977;28;20038;-74
2021/03/13 09:08:41;;;;;;;3.28;0.50;;;;;;;8.50;47.90;95401.66;5030215;28;20045;-74
2021/03/13 09:11:07;;;;;;;1.98;0.60;;;;;;;8.62;48.57;95374.63;5029970;28;20079;-74
2021/03/13 09:13:33;;;;;;;1.00;0.40;;;;;;;8.69;46.35;95373.31;5029339;28;20435;-74
2021/03/13 09:15:59;;;;;;;1.27;0.40;;;;;;;8.87;46.73;95369.34;5029785;28;20059;-74
2021/03/13 09:18:25;;;;;;;3.60;0.70;;;;;;;9.05;46.46;95375.44;5028889;28;20536;-74
2021/03/13 09:20:51;;;;;;;2.15;0.40;;;;;;;9.01;45.78;95356.31;5030598;28;20060;-73
2021/03/13 09:23:17;;;;;;;1.13;0.50;;;;;;;9.04;45.53;95360.28;5046641;28;20049;-72
2021/03/13 09:25:44;;;;;;;1.70;0.50;;;;;;;9.08;46.57;95358.47;5050368;28;20049;-72
2021/03/13 09:28:10;;;;;;;0.73;0.40;;;;;;;9.11;46.80;95345.03;5036694;28;20135;-72
2021/03/13 09:30:37;;;;;;;1.45;0.65;;;;;;;9.19;44.72;95359.69;5029989;28;20447;-72
2021/03/13 09:33:03;;;;;;;2.65;0.60;;;;;;;9.25;44.98;95343.97;5029616;28;20052;-72
2021/03/13 09:35:29;;;;;;;2.00;0.50;;;;;;;9.20;44.05;95352.31;5029633;28;20408;-72
2021/03/13 09:37:55;;;;;;;2.42;0.50;;;;;;;9.29;43.28;95347.59;5030132;28;20523;-74
2021/03/13 09:40:23;;;;;;;2.92;0.60;;;;;;;9.36;43.20;95348.66;5028716;28;22854;-72
2021/03/13 09:42:51;;;;;;;1.67;0.50;;;;;;;9.48;43.70;95345.16;5030295;28;20041;-73
2021/03/13 09:45:19;;;;;;;0.85;0.40;;;;;;;9.52;43.08;95340.66;5028999;28;20053;-72
2021/03/13 09:47:47;;;;;;;1.52;0.40;;;;;;;9.45;44.13;95329.56;5030428;28;20049;-74
2021/03/13 09:50:15;;;;;;;2.92;0.50;;;;;;;9.42;43.96;95322.06;5028788;28;20050;-72
2021/03/13 09:52:43;;;;;;;1.17;0.47;;;;;;;9.44;42.36;95321.72;5029330;28;20049;-72
2021/03/13 09:55:11;;;;;;;1.10;0.52;;;;;;;9.43;42.07;95326.34;5028965;28;20045;-73
2021/03/13 09:57:40;;;;;;;0.88;0.40;;;;;;;9.44;43.35;95327.94;5029783;28;20095;-72
2021/03/13 10:00:11;;;;;;;1.95;0.50;;;;;;;9.43;43.04;95325.56;5029586;28;20045;-72
2021/03/13 10:02:38;;;;;;;3.03;0.50;;;;;;;9.50;43.76;95323.91;5029208;28;20080;-72
2021/03/13 10:05:06;;;;;;;1.27;0.70;;;;;;;9.60;44.18;95322.66;5029887;28;20507;-72
2021/03/13 10:07:37;;;;;;;1.85;0.45;;;;;;;9.61;41.76;95327.78;5029693;28;20045;-72
2021/03/13 10:10:05;;;;;;;1.67;0.70;;;;;;;9.80;42.52;95323.72;5029759;28;20045;-72
2021/03/13 10:12:33;;;;;;;1.38;0.63;;;;;;;9.78;41.83;95323.28;5029049;28;20485;-72
2021/03/13 10:15:21;;;;;;;1.05;0.60;;;;;;;9.81;43.04;95319.88;5029654;28;20567;-72
2021/03/13 10:17:56;;;;;;;3.17;0.70;;;;;;;9.82;42.40;95318.75;5032941;28;20120;-73
2021/03/13 10:20:23;;;;;;;1.95;0.88;;;;;;;9.95;42.06;95320.34;5032244;28;20076;-72
2021/03/13 10:22:49;;;;;;;3.65;0.75;;;;;;;9.97;42.00;95320.81;5033197;28;20045;-72
2021/03/13 10:25:16;;;;;;;2.42;0.47;;;;;;;10.06;42.96;95310.59;5031820;28;20114;-73
2021/03/13 10:27:43;;;;;;;1.73;0.65;;;;;;;10.26;43.68;95300.75;5033349;28;20048;-72
2021/03/13 10:30:11;;;;;;;1.90;0.70;;;;;;;10.12;41.15;95309.22;5031770;28;20095;-73
2021/03/13 10:32:39;;;;;;;3.20;0.57;;;;;;;10.11;42.45;95298.69;5033310;28;20045;-72
2021/03/13 10:35:11;;;;;;;2.50;0.60;;;;;;;10.25;41.95;95284.78;5032160;28;20053;-72
2021/03/13 10:37:40;;;;;;;4.22;0.82;;;;;;;10.28;40.48;95284.09;5032800;28;20045;-73
2021/03/13 10:40:08;;;;;;;2.05;0.70;;;;;;;10.23;42.01;95293.25;5032231;28;20083;-72
2021/03/13 10:42:35;;;;;;;1.85;0.65;;;;;;;10.13;41.74;95288.28;5032293;28;20042;-73
2021/03/13 10:45:16;;;;;;;2.97;0.60;;;;;;;10.09;42.08;95288.16;5033130;28;20056;-73
2021/03/13 10:47:44;;;;;;;1.05;0.50;;;;;;;10.22;41.43;95290.88;5032081;28;20037;-72
2021/03/13 10:50:11;;;;;;;1.38;0.57;;;;;;;10.22;42.08;95285.44;5032571;28;20064;-72
2021/03/13 10:52:38;;;;;;;1.30;0.50;;;;;;;10.28;41.23;95286.81;5032789;28;20511;-72
2021/03/13 10:55:06;;;;;;;2.63;1.42;;;;;;;10.35;42.22;95281.59;5032175;28;20072;-72
2021/03/13 10:57:32;;;;;;;4.20;0.65;;;;;;;10.38;42.01;95280.91;5032328;28;20064;-73
2021/03/13 10:59:58;;;;;;;2.42;0.65;;;;;;;10.28;42.14;95275.94;5032323;28;20050;-72
2021/03/13 11:02:24;;;;;;;3.25;0.70;;;;;;;10.38;42.81;95272.75;5031980;28;20496;-72
2021/03/13 11:04:51;;;;;;;3.38;0.70;;;;;;;10.40;42.87;95265.03;5031851;28;20056;-72
2021/03/13 11:07:17;;;;;;;1.75;0.55;;;;;;;10.52;43.24;95261.50;5032291;28;20060;-72
2021/03/13 11:09:45;;;;;;;0.80;0.40;;;;;;;10.50;43.24;95270.03;5031601;28;20037;-73
2021/03/13 11:12:12;;;;;;;2.35;0.90;;;;;;;10.54;42.07;95268.16;5032039;28;20049;-72
2021/03/13 11:14:38;;;;;;;2.65;0.60;;;;;;;10.69;42.22;95262.00;5031609;28;20067;-72
2021/03/13 11:17:04;;;;;;;1.48;0.68;;;;;;;10.76;43.20;95258.72;5031899;28;20103;-72
2021/03/13 11:19:30;;;;;;;0.77;0.60;;;;;;;10.99;42.87;95261.69;5031681;28;20056;-72
2021/03/13 11:21:58;;;;;;;4.65;0.60;;;;;;;10.95;43.20;95252.63;5032455;28;20132;-72
2021/03/13 11:24:25;;;;;;;2.03;0.68;;;;;;;11.20;43.22;95253.31;5031338;28;20046;-72
2021/03/13 11:26:51;;;;;;;3.42;0.70;;;;;;;11.28;41.58;95254.31;5031404;28;20056;-72
2021/03/13 11:29:18;;;;;;;1.65;0.73;;;;;;;11.05;41.21;95243.16;5030785;28;20119;-72
2021/03/13 11:31:44;;;;;;;4.72;0.80;;;;;;;11.11;41.95;95245.28;5031244;28;20087;-72
2021/03/13 11:34:10;;;;;;;2.65;0.65;;;;;;;11.08;41.26;95234.31;5031725;28;20111;-73
2021/03/13 11:36:36;;;;;;;1.65;0.77;;;;;;;11.08;41.17;95224.19;5031294;28;20037;-72
2021/03/13 11:39:06;;;;;;;2.92;0.80;;;;;;;11.07;40.43;95219.91;5031771;28;20428;-72
2021/03/13 11:41:32;;;;;;;2.13;0.50;;;;;;;11.00;39.83;95200.63;5031288;28;20053;-72
2021/03/13 11:43:58;;;;;;;4.00;0.80;;;;;;;10.90;39.92;95185.56;5031647;28;20045;-72
2021/03/13 11:46:25;;;;;;;1.95;0.57;;;;;;;10.94;40.64;95193.84;5030981;28;20045;-72
2021/03/13 11:48:51;;;;;;;2.47;0.70;;;;;;;10.76;40.67;95182.47;5031387;28;20046;-72